createdAt,value
2023-05-14T00:01:02.878Z,15.23
2023-05-14T00:06:05.785Z,15.80
2023-05-14T00:11:09.146Z,16.65
2023-05-14T00:16:12.354Z,15.27
2023-05-14T00:21:14.970Z,16.23
2023-05-14T00:26:21.541Z,13.15
2023-05-14T00:31:24.382Z,14.88
2023-05-14T00:36:27.211Z,14.70
2023-05-14T00:41:31.232Z,18.17
2023-05-14T00:46:34.024Z,16.35
2023-05-14T00:51:36.746Z,17.05
2023-05-14T00:56:39.797Z,14.27
2023-05-14T01:01:42.769Z,13.85
2023-05-14T01:06:52.082Z,15.70
2023-05-14T01:12:36.723Z,13.70
2023-05-14T01:17:43.765Z,13.95
2023-05-14T01:22:46.405Z,15.27
2023-05-14T01:27:53.564Z,12.65
2023-05-14T01:33:00.673Z,17.00
2023-05-14T01:38:05.601Z,13.80
2023-05-14T01:43:08.800Z,14.73
2023-05-14T01:48:13.968Z,11.45
2023-05-14T01:53:16.570Z,14.32
2023-05-14T01:58:19.951Z,14.52
2023-05-14T02:03:22.710Z,14.15
2023-05-14T02:08:25.811Z,14.07
2023-05-14T02:13:28.307Z,12.75
2023-05-14T02:18:31.703Z,12.48
2023-05-14T02:23:41.564Z,12.52
2023-05-14T02:28:46.006Z,12.27
2023-05-14T02:33:49.146Z,12.13
2023-05-14T02:38:52.035Z,14.65
2023-05-14T02:43:54.997Z,13.73
2023-05-14T02:48:58.107Z,11.43
2023-05-14T02:54:00.898Z,11.65
2023-05-14T02:59:03.884Z,11.52
2023-05-14T03:04:09.512Z,12.70
2023-05-14T03:09:12.810Z,13.10
2023-05-14T03:14:16.472Z,10.75
2023-05-14T03:19:19.155Z,12.27
2023-05-14T03:24:24.344Z,12.65
2023-05-14T03:29:26.972Z,11.98
2023-05-14T03:34:30.484Z,13.57
2023-05-14T03:39:34.598Z,13.85
2023-05-14T03:44:40.769Z,13.95
2023-05-14T03:49:44.946Z,10.68
2023-05-14T03:54:49.629Z,13.00
2023-05-14T03:59:52.664Z,11.60
2023-05-14T04:04:56.355Z,13.93
2023-05-14T04:10:01.163Z,14.30
2023-05-14T04:15:08.130Z,15.10
2023-05-14T04:20:11.258Z,13.20
2023-05-14T04:25:13.846Z,14.18
2023-05-14T04:30:16.607Z,12.35
2023-05-14T04:35:22.680Z,12.90
2023-05-14T04:40:27.082Z,15.13
2023-05-14T04:45:30.860Z,14.88
2023-05-14T04:50:35.850Z,13.70
2023-05-14T04:55:38.606Z,16.85
2023-05-14T05:00:41.436Z,16.58
2023-05-14T05:05:44.128Z,14.48
2023-05-14T05:10:46.913Z,16.02
2023-05-14T05:15:49.580Z,16.40
2023-05-14T05:20:52.269Z,17.00
2023-05-14T05:25:56.229Z,16.77
2023-05-14T05:31:00.281Z,16.67
2023-05-14T05:36:02.973Z,16.15
2023-05-14T05:41:08.186Z,16.77
2023-05-14T05:46:10.763Z,15.48
2023-05-14T05:51:14.189Z,15.68
2023-05-14T05:56:16.826Z,15.48
2023-05-14T06:01:19.550Z,16.35
2023-05-14T06:06:22.151Z,12.48
2023-05-14T06:11:24.874Z,16.02
2023-05-14T06:16:27.744Z,15.82
2023-05-14T06:21:30.480Z,17.08
2023-05-14T06:26:33.081Z,16.95
2023-05-14T06:31:35.799Z,15.90
2023-05-14T06:36:38.650Z,12.88
2023-05-14T06:41:42.049Z,14.90
2023-05-14T06:46:50.450Z,15.30
2023-05-14T06:51:54.226Z,15.00
2023-05-14T06:56:57.479Z,15.75
2023-05-14T07:02:01.362Z,14.60
2023-05-14T07:07:04.359Z,14.10
2023-05-14T07:12:07.851Z,15.20
2023-05-14T07:17:12.038Z,15.27
2023-05-14T07:22:17.858Z,14.57
2023-05-14T07:27:20.627Z,14.50
2023-05-14T07:32:25.144Z,14.18
2023-05-14T07:37:28.312Z,13.15
2023-05-14T07:42:36.639Z,13.20
2023-05-14T07:47:40.940Z,12.65
2023-05-14T08:02:52.066Z,10.50
2023-05-14T08:07:55.110Z,10.18
2023-05-14T08:12:57.895Z,10.30
2023-05-14T08:18:06.329Z,9.43
2023-05-14T08:23:09.553Z,9.95
2023-05-14T08:28:30.746Z,8.75
2023-05-14T08:33:33.412Z,9.25
2023-05-14T08:38:42.638Z,10.32
2023-05-14T08:44:07.933Z,9.90
2023-05-14T08:49:46.282Z,9.82
2023-05-14T08:54:51.215Z,9.10
2023-05-14T08:59:54.308Z,7.65
2023-05-14T09:05:02.471Z,8.95
2023-05-14T09:10:05.895Z,8.32
2023-05-14T09:15:08.888Z,8.05
2023-05-14T09:20:13.349Z,9.40
2023-05-14T09:25:16.869Z,7.78
2023-05-14T09:30:19.490Z,8.55
2023-05-14T09:35:25.813Z,8.10
2023-05-14T09:40:28.811Z,8.23
2023-05-14T09:45:33.896Z,8.77
2023-05-14T09:50:45.431Z,6.82
2023-05-14T09:56:02.255Z,7.00
2023-05-14T10:01:05.067Z,7.63
2023-05-14T10:06:08.841Z,6.95
2023-05-14T10:11:30.143Z,6.82
2023-05-14T10:16:48.484Z,6.72
2023-05-14T10:22:05.953Z,6.93
2023-05-14T10:27:08.904Z,6.40
2023-05-14T10:37:18.223Z,5.90
2023-05-14T10:42:27.966Z,6.40
2023-05-14T10:47:36.875Z,6.22
2023-05-14T10:52:57.959Z,5.10
2023-05-14T11:03:05.945Z,7.60
2023-05-14T11:08:09.065Z,7.07
2023-05-14T11:13:12.135Z,6.55
2023-05-14T11:18:26.236Z,7.00
2023-05-14T11:23:29.275Z,6.20
2023-05-14T11:28:32.117Z,6.60
2023-05-14T11:33:36.118Z,7.75
2023-05-14T11:38:49.013Z,6.40
2023-05-14T11:43:51.894Z,5.35
2023-05-14T11:48:54.481Z,7.13
2023-05-14T11:53:58.948Z,6.45
2023-05-14T11:59:01.787Z,5.35
2023-05-14T12:04:05.286Z,6.20
2023-05-14T12:09:07.956Z,6.40
2023-05-14T12:14:15.538Z,7.10
2023-05-14T12:19:21.855Z,6.65
2023-05-14T12:24:25.956Z,8.45
2023-05-14T12:29:28.644Z,6.72
2023-05-14T12:34:31.219Z,7.15
2023-05-14T12:39:35.752Z,6.50
2023-05-14T12:44:38.605Z,5.90
2023-05-14T12:49:42.411Z,7.50
2023-05-14T12:54:45.201Z,5.85
2023-05-14T12:59:48.058Z,6.03
2023-05-14T13:04:50.868Z,6.80
2023-05-14T13:09:53.616Z,6.70
2023-05-14T13:14:56.151Z,5.90
2023-05-14T13:19:59.052Z,7.40
2023-05-14T13:25:01.928Z,6.88
2023-05-14T13:30:05.174Z,6.53
2023-05-14T13:35:08.107Z,6.25
2023-05-14T13:40:11.543Z,5.93
2023-05-14T13:45:14.240Z,6.78
2023-05-14T13:50:17.046Z,6.72
2023-05-14T13:55:20.856Z,7.03
2023-05-14T14:00:23.773Z,6.45
2023-05-14T14:10:31.287Z,5.63
2023-05-14T14:15:35.592Z,6.57
2023-05-14T14:20:38.754Z,5.93
2023-05-14T14:25:42.111Z,5.53
2023-05-14T14:30:45.120Z,5.30
2023-05-14T14:35:47.917Z,6.22
2023-05-14T14:40:50.753Z,6.68
2023-05-14T14:45:53.429Z,6.05
2023-05-14T14:50:56.249Z,5.63
2023-05-14T14:56:00.660Z,6.07
2023-05-14T15:01:03.544Z,5.53
2023-05-14T15:06:06.495Z,5.57
2023-05-14T15:11:09.298Z,5.63
2023-05-14T15:16:12.607Z,5.80
2023-05-14T15:21:15.323Z,6.70
2023-05-14T15:26:17.938Z,5.78
2023-05-14T15:31:20.746Z,5.78
2023-05-14T15:36:23.753Z,5.72
2023-05-14T15:41:28.769Z,5.40
2023-05-14T15:46:32.272Z,6.07
2023-05-14T15:51:35.197Z,5.40
2023-05-14T15:56:37.744Z,5.95
2023-05-14T16:01:40.815Z,5.38
2023-05-14T16:06:45.238Z,5.60
2023-05-14T16:11:48.041Z,5.45
2023-05-14T16:16:50.967Z,5.90
2023-05-14T16:26:56.685Z,5.78
2023-05-14T16:31:59.549Z,6.20
2023-05-14T16:37:02.287Z,6.00
2023-05-14T16:42:05.162Z,6.70
2023-05-14T16:47:07.705Z,7.50
2023-05-14T16:52:10.463Z,7.53
2023-05-14T16:57:15.920Z,7.68
2023-05-14T17:02:18.667Z,8.93
2023-05-14T17:07:21.332Z,7.80
2023-05-14T17:12:24.305Z,9.02
2023-05-14T17:17:26.993Z,10.63
2023-05-14T17:22:29.806Z,9.10
2023-05-14T17:27:33.443Z,9.33
2023-05-14T17:32:36.207Z,9.05
2023-05-14T17:37:39.165Z,9.52
2023-05-14T17:42:41.905Z,9.77
2023-05-14T17:47:44.543Z,8.50
2023-05-14T17:52:47.657Z,10.27
2023-05-14T17:57:53.424Z,9.65
2023-05-14T18:02:56.330Z,9.68
2023-05-14T18:07:59.167Z,8.47
2023-05-14T18:13:01.838Z,7.53
2023-05-14T18:18:04.998Z,7.13
2023-05-14T18:23:10.330Z,7.27
2023-05-14T18:28:13.081Z,6.78
2023-05-14T18:33:15.808Z,8.25
2023-05-14T18:38:20.939Z,8.38
2023-05-14T18:43:23.799Z,8.43
2023-05-14T18:48:26.520Z,8.07
2023-05-14T18:53:29.472Z,7.55
2023-05-14T18:58:32.519Z,8.13
2023-05-14T19:03:35.380Z,8.10
2023-05-14T19:08:38.996Z,8.35
2023-05-14T19:13:44.443Z,9.02
2023-05-14T19:18:47.235Z,8.93
2023-05-14T19:23:49.988Z,8.48
2023-05-14T19:28:58.036Z,7.90
2023-05-14T19:34:00.793Z,8.90
2023-05-14T19:39:03.666Z,9.60
2023-05-14T19:44:06.506Z,8.77
2023-05-14T19:49:09.157Z,9.02
2023-05-14T19:54:11.863Z,8.77
2023-05-14T19:59:14.588Z,8.30
2023-05-14T20:04:17.950Z,8.52
2023-05-14T20:09:23.785Z,8.88
2023-05-14T20:14:26.525Z,8.32
2023-05-14T20:19:29.143Z,8.60
2023-05-14T20:24:31.967Z,8.40
2023-05-14T20:29:34.592Z,8.68
2023-05-14T20:34:37.308Z,8.60
2023-05-14T20:39:40.125Z,9.18
2023-05-14T20:44:43.017Z,8.68
2023-05-14T20:49:46.518Z,8.07
2023-05-14T20:54:49.621Z,8.82
2023-05-14T20:59:52.409Z,8.50
2023-05-14T21:04:55.395Z,8.13
2023-05-14T21:09:58.196Z,9.52
2023-05-14T21:15:00.841Z,8.43
2023-05-14T21:20:03.951Z,8.40
2023-05-14T21:25:08.205Z,9.02
2023-05-14T21:30:11.399Z,8.52
2023-05-14T21:35:14.155Z,8.65
2023-05-14T21:40:16.804Z,8.57
2023-05-14T21:45:20.731Z,8.27
2023-05-14T21:50:24.371Z,8.52
2023-05-14T21:55:28.589Z,8.80
2023-05-14T22:00:31.886Z,10.52
2023-05-14T22:05:34.564Z,12.23
2023-05-14T22:10:37.103Z,10.45
2023-05-14T22:15:39.876Z,10.57
2023-05-14T22:20:43.017Z,9.20
2023-05-14T22:25:45.807Z,8.73
2023-05-14T22:30:48.289Z,10.35
2023-05-14T22:35:51.457Z,9.40
2023-05-14T22:40:54.136Z,9.88
2023-05-14T22:45:56.892Z,9.52
2023-05-14T22:50:59.415Z,11.68
2023-05-14T22:56:02.357Z,9.25
2023-05-14T23:01:24.098Z,9.60
2023-05-14T23:06:26.892Z,9.85
2023-05-14T23:11:29.749Z,9.13
2023-05-14T23:16:33.931Z,9.77
2023-05-14T23:21:36.659Z,11.68
2023-05-14T23:26:39.749Z,10.02
2023-05-14T23:31:43.649Z,9.77
2023-05-14T23:36:46.406Z,9.95
2023-05-14T23:41:49.458Z,10.60
2023-05-14T23:46:52.277Z,10.15
2023-05-14T23:51:56.828Z,10.57
2023-05-14T23:56:59.841Z,9.50
